WATTWPDL

Guest
Details From WATT - Kupang El Tari
To WPDL - Dili Presidente Nicolau Lobato Intl
Flight Number -
Tags decoded
Created
Modified
Stats Distance 151 nm / 280 km
Max Altitude 0 ft / 0 m
Waypoints 3
Social Downloads 0
Likes 0
Share VATSIM

Download

Looking for another format? Having issues loading an existing format? Contact us
Advertisement - Login to hide

Notes

Requested: WATT OTORA WPDL

Route

WATT OTORA WPDL

ID Type Via Altitude Latitude Longitude Leg Dist Tot Dist Heading (true) Name
O WATT APT - 0 ft / 0 m -10.17340˚ 123.66771˚ - 0 nm - Kupang El Tari
OTORA FIX - 0 ft / 0 m -8.63343˚ 125.09406˚ 125 nm 125 nm 43° / 42° -
O WPDL APT - 0 ft / 0 m -8.54655˚ 125.52472˚ 26 nm 151 nm 79° / 78° Dili Presidente Nicolau Lobato Intl

Altitude Profile

Advertisement - Login to hide

WATT

Details ICAO WATT (KOE)
Name Kupang El Tari
Region Indonesia
Timezone Asia/Makassar (UTC+8.0)
Stats Elevation 335 ft / 102 m (AMSL)
Location -10.173397° 123.667705°
Runways 2
Magnetic Variation 1.505° E

METAR

WATT 181030Z 25008KT 6000 -TSRA FEW014CB BKN015 25/24 Q1008 RMK CB OVER THE FIELD

Decode

TAF

TAF WATT 180500Z 1806/1906 20010KT 9999 FEW016CB BKN017 TEMPO 1806/1810 4000 -TSRA BECMG 1812/1816 12004KT SCT018

Decode

Departure Runways

ID Width Length Bearing (true) Bearing (mag) Surface Threshold Offset Overrun Length
07 148 ft / 45 m 8,222 ft / 2,506 m 76.68° 75.18° Asphalt 0 ft / 0 m 179 ft / 55 m
12 210 ft / 64 m 4,179 ft / 1,274 m 125.35° 123.85° Dirt 0 ft / 0 m 0 ft / 0 m
25 148 ft / 45 m 8,222 ft / 2,506 m 256.68° 255.18° Asphalt 0 ft / 0 m 197 ft / 60 m
30 210 ft / 64 m 4,179 ft / 1,274 m 305.35° 303.85° Dirt 0 ft / 0 m 0 ft / 0 m

WPDL

Details ICAO WPDL (DIL)
Name Dili Presidente Nicolau Lobato Intl
Region Timor-Leste
Timezone Unknown (UTC+0.0)
Stats Elevation 25 ft / 8 m (AMSL)
Location -8.546553° 125.524721°
Runways 1
Magnetic Variation 1.510° E

METAR

Not found

TAF

TAF TAF WPDL 180623Z 1808/1820 15006KT 9999 FEW025 PROB30 TEMPO 1808/1809 VRB20G30KT 9999 TSRA BKN010 SCT020CB

Decode

Destination Runways

ID Width Length Bearing (true) Bearing (mag) Surface Threshold Offset Overrun Length
08 98 ft / 30 m 6,062 ft / 1,848 m 77.11° 75.60° Asphalt 201 ft / 61 m 100 ft / 30 m
26 98 ft / 30 m 6,062 ft / 1,848 m 257.11° 255.60° Asphalt 0 ft / 0 m 100 ft / 30 m